createdAt,value
2022-08-01T00:02:50.374Z,1.70
2022-08-01T00:06:14.301Z,1.20
2022-08-01T00:09:38.238Z,1.30
2022-08-01T00:13:02.331Z,1.20
2022-08-01T00:16:26.320Z,1.42
2022-08-01T00:19:50.344Z,2.20
2022-08-01T00:23:14.287Z,1.80
2022-08-01T00:26:39.289Z,1.55
2022-08-01T00:30:13.354Z,1.48
2022-08-01T00:33:39.331Z,1.55
2022-08-01T00:37:04.246Z,1.40
2022-08-01T00:40:29.355Z,1.13
2022-08-01T00:43:53.295Z,1.20
2022-08-01T00:47:18.390Z,1.10
2022-08-01T00:50:42.289Z,1.95
2022-08-01T00:54:07.298Z,1.60
2022-08-01T00:58:02.783Z,1.52
2022-08-01T01:01:16.330Z,1.05
2022-08-01T01:04:40.340Z,1.10
2022-08-01T01:08:15.332Z,1.40
2022-08-01T01:11:48.285Z,1.08
2022-08-01T01:15:27.335Z,1.70
2022-08-01T01:19:08.279Z,1.00
2022-08-01T01:22:40.337Z,0.98
2022-08-01T01:26:36.322Z,1.00
2022-08-01T01:30:08.367Z,1.05
2022-08-01T01:33:34.277Z,0.93
2022-08-01T01:37:00.378Z,1.10
2022-08-01T01:40:25.308Z,0.80
2022-08-01T01:43:52.371Z,0.95
2022-08-01T01:47:17.325Z,1.10
2022-08-01T01:50:41.286Z,0.90
2022-08-01T01:54:05.318Z,0.98
2022-08-01T01:57:29.344Z,1.25
2022-08-01T02:00:47.361Z,1.00
2022-08-01T02:04:13.340Z,0.93
2022-08-01T02:07:41.309Z,1.00
2022-08-01T02:11:27.386Z,0.70
2022-08-01T02:14:51.332Z,1.05
2022-08-01T02:18:17.388Z,0.90
2022-08-01T02:21:56.313Z,0.98
2022-08-01T02:25:27.346Z,0.80
2022-08-01T02:28:57.368Z,0.80
2022-08-01T02:32:21.374Z,1.45
2022-08-01T02:36:31.146Z,0.82
2022-08-01T02:39:34.308Z,0.85
2022-08-01T02:43:05.394Z,1.10
2022-08-01T02:46:34.343Z,1.00
2022-08-01T02:50:03.359Z,1.25
2022-08-01T02:53:41.639Z,1.00
2022-08-01T02:57:14.066Z,1.50
2022-08-01T03:00:38.301Z,1.00
2022-08-01T03:04:02.342Z,1.00
2022-08-01T03:07:34.244Z,0.88
2022-08-01T03:11:01.394Z,1.40
2022-08-01T03:14:27.371Z,1.40
2022-08-01T03:17:51.397Z,1.10
2022-08-01T03:21:09.984Z,1.10
2022-08-01T03:24:28.395Z,1.58
2022-08-01T03:27:53.381Z,1.92
2022-08-01T03:31:17.400Z,1.30
2022-08-01T03:34:41.354Z,1.42
2022-08-01T03:38:16.388Z,1.40
2022-08-01T03:41:42.362Z,1.40
2022-08-01T03:45:18.354Z,2.30
2022-08-01T03:48:45.505Z,1.70
2022-08-01T03:52:09.404Z,1.90
2022-08-01T03:55:33.393Z,2.10
2022-08-01T03:58:58.419Z,1.70
2022-08-01T04:02:23.340Z,1.33
2022-08-01T04:05:47.363Z,1.10
2022-08-01T04:09:13.334Z,1.40
2022-08-01T04:12:38.559Z,1.48
2022-08-01T04:16:02.349Z,1.00
2022-08-01T04:19:27.547Z,0.90
2022-08-01T04:22:45.288Z,0.93
2022-08-01T04:26:04.422Z,1.70
2022-08-01T04:29:28.468Z,2.45
2022-08-01T04:32:54.432Z,3.20
2022-08-01T04:36:18.415Z,2.65
2022-08-01T04:39:50.740Z,1.55
2022-08-01T04:43:15.444Z,2.47
2022-08-01T04:46:38.393Z,1.52
2022-08-01T04:50:02.416Z,1.80
2022-08-01T04:53:32.408Z,1.80
2022-08-01T04:56:56.390Z,1.80
2022-08-01T05:00:20.424Z,1.77
2022-08-01T05:03:44.421Z,4.40
2022-08-01T05:07:08.448Z,4.40
2022-08-01T05:10:35.508Z,2.83
2022-08-01T05:14:00.389Z,2.70
2022-08-01T05:17:25.456Z,2.40
2022-08-01T05:20:49.380Z,3.50
2022-08-01T05:24:13.385Z,3.67
2022-08-01T05:27:38.367Z,4.70
2022-08-01T05:31:03.404Z,5.32
2022-08-01T05:34:28.408Z,4.50
2022-08-01T05:37:52.398Z,3.78
2022-08-01T05:41:17.441Z,3.38
2022-08-01T05:44:42.416Z,3.95
2022-08-01T05:48:06.463Z,5.38
2022-08-01T05:51:31.394Z,4.53
2022-08-01T05:54:55.441Z,6.10
2022-08-01T05:58:20.474Z,6.35
2022-08-01T06:01:45.488Z,5.68
2022-08-01T06:05:13.046Z,5.82
2022-08-01T06:08:37.447Z,7.20
2022-08-01T06:12:01.392Z,5.07
2022-08-01T06:15:26.451Z,5.60
2022-08-01T06:18:51.148Z,3.72
2022-08-01T06:22:17.392Z,3.53
2022-08-01T06:25:42.445Z,3.80
2022-08-01T06:29:06.441Z,8.15
2022-08-01T06:32:35.417Z,10.77
2022-08-01T06:35:59.483Z,7.80
2022-08-01T06:39:23.474Z,7.82
2022-08-01T06:42:47.454Z,6.20
2022-08-01T06:46:11.469Z,4.82
2022-08-01T06:49:35.576Z,3.90
2022-08-01T06:52:59.456Z,3.63
2022-08-01T06:56:23.511Z,4.18
2022-08-01T06:59:54.431Z,8.07
2022-08-01T07:03:19.487Z,8.65
2022-08-01T07:06:43.433Z,13.60
2022-08-01T07:10:07.441Z,10.25
2022-08-01T07:13:44.027Z,6.50
2022-08-01T07:17:09.643Z,6.57
2022-08-01T07:20:41.264Z,6.63
2022-08-01T07:24:15.512Z,7.20
2022-08-01T07:27:34.127Z,7.53
2022-08-01T07:30:53.481Z,9.52
2022-08-01T07:34:17.431Z,8.10
2022-08-01T07:37:48.339Z,7.78
2022-08-01T07:41:13.507Z,7.77
2022-08-01T07:44:38.459Z,6.75
2022-08-01T07:48:02.496Z,8.00
2022-08-01T07:51:26.410Z,12.75
2022-08-01T07:54:52.275Z,15.23
2022-08-01T07:58:16.478Z,15.75
2022-08-01T08:01:40.575Z,13.98
2022-08-01T08:05:04.461Z,14.00
2022-08-01T08:08:29.449Z,14.50
2022-08-01T08:11:53.484Z,12.75
2022-08-01T08:15:17.480Z,15.48
2022-08-01T08:18:42.473Z,13.32
2022-08-01T08:22:07.644Z,4.07
2022-08-01T08:25:33.510Z,4.15
2022-08-01T08:28:51.063Z,7.32
2022-08-01T08:32:09.824Z,11.60
2022-08-01T08:35:40.439Z,13.30
2022-08-01T08:42:44.507Z,16.60
2022-08-01T08:46:09.501Z,27.42
2022-08-01T08:49:36.608Z,23.63
2022-08-01T08:53:01.442Z,18.88
2022-08-01T08:56:28.213Z,9.43
2022-08-01T08:59:53.512Z,14.57
2022-08-01T09:03:17.498Z,13.80
2022-08-01T09:06:41.456Z,13.38
2022-08-01T09:10:05.482Z,12.10
2022-08-01T09:13:31.542Z,8.90
2022-08-01T09:17:00.490Z,6.93
2022-08-01T09:20:23.564Z,17.55
2022-08-01T09:24:11.501Z,23.30
2022-08-01T09:27:37.509Z,4.97
2022-08-01T09:31:03.086Z,3.90
2022-08-01T09:34:20.498Z,15.45
2022-08-01T09:37:48.532Z,14.85
2022-08-01T09:41:22.525Z,20.90
2022-08-01T09:44:59.512Z,16.98
2022-08-01T09:48:28.826Z,12.85
2022-08-01T09:51:59.185Z,14.60
2022-08-01T09:55:25.532Z,11.02
2022-08-01T09:59:14.512Z,9.95
2022-08-01T10:02:49.543Z,9.55
2022-08-01T10:06:13.537Z,17.73
2022-08-01T10:09:48.499Z,16.88
2022-08-01T10:13:13.585Z,13.52
2022-08-01T10:16:38.766Z,12.82
2022-08-01T10:20:04.509Z,9.68
2022-08-01T10:23:40.640Z,9.80
2022-08-01T10:27:13.858Z,16.33
2022-08-01T10:34:01.515Z,20.58
2022-08-01T10:37:27.004Z,19.48
2022-08-01T10:40:52.499Z,42.13
2022-08-01T10:44:17.528Z,22.77
2022-08-01T10:47:54.505Z,28.30
2022-08-01T10:51:21.587Z,27.92
2022-08-01T10:54:52.150Z,38.08
2022-08-01T11:01:45.757Z,36.25
2022-08-01T11:05:35.518Z,25.50
2022-08-01T11:09:07.503Z,20.13
2022-08-01T11:12:32.528Z,21.35
2022-08-01T11:16:05.800Z,20.85
2022-08-01T11:19:40.502Z,20.92
2022-08-01T11:23:16.542Z,18.48
2022-08-01T11:26:41.536Z,17.73
2022-08-01T11:30:26.595Z,16.92
2022-08-01T11:33:59.248Z,17.40
2022-08-01T11:37:55.518Z,17.65
2022-08-01T11:45:06.531Z,26.70
2022-08-01T11:48:39.508Z,32.75
2022-08-01T11:52:04.199Z,37.92
2022-08-01T11:55:31.476Z,37.70
2022-08-01T11:58:58.546Z,33.08
2022-08-01T12:02:47.811Z,29.63
2022-08-01T12:06:12.544Z,20.98
2022-08-01T12:09:37.555Z,19.77
2022-08-01T12:13:08.538Z,20.25
2022-08-01T12:16:33.026Z,17.98
2022-08-01T12:19:57.554Z,20.85
2022-08-01T12:23:27.570Z,27.90
2022-08-01T12:26:57.499Z,33.70
2022-08-01T12:30:23.572Z,31.80
2022-08-01T12:33:47.488Z,45.70
2022-08-01T12:37:15.542Z,42.28
2022-08-01T12:40:45.330Z,36.28
2022-08-01T12:44:09.570Z,30.05
2022-08-01T12:47:34.531Z,28.67
2022-08-01T12:51:06.560Z,24.05
2022-08-01T12:58:01.580Z,21.67
2022-08-01T13:01:26.616Z,20.30
2022-08-01T13:05:05.681Z,19.88
2022-08-01T13:08:40.554Z,19.77
2022-08-01T13:12:04.903Z,18.05
2022-08-01T13:15:41.540Z,17.02
2022-08-01T13:19:09.562Z,15.30
2022-08-01T13:22:33.554Z,16.00
2022-08-01T13:26:08.597Z,14.38
2022-08-01T13:29:36.511Z,14.15
2022-08-01T13:33:00.564Z,14.38
2022-08-01T13:36:28.341Z,13.40
2022-08-01T13:39:56.568Z,14.90
2022-08-01T13:43:21.522Z,14.57
2022-08-01T13:46:49.790Z,14.73
2022-08-01T13:50:16.583Z,41.25
2022-08-01T13:53:40.574Z,32.78
2022-08-01T13:57:05.591Z,42.08
2022-08-01T14:00:29.571Z,25.50
2022-08-01T14:03:53.604Z,26.23
2022-08-01T14:07:18.576Z,23.98
2022-08-01T14:10:42.615Z,22.77
2022-08-01T14:14:08.535Z,21.83
2022-08-01T14:17:32.549Z,21.23
2022-08-01T14:21:05.712Z,24.45
2022-08-01T14:24:30.588Z,24.92
2022-08-01T14:27:56.576Z,19.65
2022-08-01T14:31:20.595Z,14.45
2022-08-01T14:34:44.543Z,16.33
2022-08-01T14:38:08.572Z,17.20
2022-08-01T14:41:32.638Z,17.83
2022-08-01T14:44:57.587Z,15.60
2022-08-01T14:48:21.630Z,13.45
2022-08-01T14:51:46.683Z,13.48
2022-08-01T14:55:10.586Z,12.93
2022-08-01T14:58:34.643Z,12.32
2022-08-01T15:01:58.610Z,12.57
2022-08-01T15:05:23.602Z,20.67
2022-08-01T15:08:47.576Z,29.00
2022-08-01T15:12:12.571Z,18.40
2022-08-01T15:15:36.605Z,17.40
2022-08-01T15:19:00.553Z,20.98
2022-08-01T15:22:25.633Z,14.82
2022-08-01T15:25:49.591Z,12.70
2022-08-01T15:29:13.575Z,13.55
2022-08-01T15:32:38.609Z,13.23
2022-08-01T15:36:02.569Z,13.13
2022-08-01T15:39:28.590Z,12.02
2022-08-01T15:42:52.637Z,10.95
2022-08-01T15:46:17.558Z,12.18
2022-08-01T15:49:41.602Z,11.80
2022-08-01T15:53:05.620Z,10.57
2022-08-01T15:56:29.606Z,10.73
2022-08-01T15:59:53.555Z,11.88
2022-08-01T16:03:18.604Z,12.57
2022-08-01T16:06:42.557Z,12.57
2022-08-01T16:10:07.615Z,12.55
2022-08-01T16:13:32.565Z,11.02
2022-08-01T16:16:57.659Z,9.65
2022-08-01T16:20:22.571Z,9.80
2022-08-01T16:23:46.663Z,9.52
2022-08-01T16:27:10.620Z,10.45
2022-08-01T16:30:34.642Z,12.00
2022-08-01T16:34:05.006Z,11.35
2022-08-01T16:37:29.610Z,10.77
2022-08-01T16:40:55.639Z,11.27
2022-08-01T16:44:15.208Z,11.45
2022-08-01T16:47:35.619Z,10.68
2022-08-01T16:51:00.624Z,10.73
2022-08-01T16:54:26.451Z,10.68
2022-08-01T16:57:50.575Z,11.32
2022-08-01T17:02:03.350Z,10.07
2022-08-01T17:04:59.713Z,10.13
2022-08-01T17:08:32.620Z,10.50
2022-08-01T17:11:56.639Z,10.02
2022-08-01T17:15:22.603Z,10.07
2022-08-01T17:18:47.569Z,10.25
2022-08-01T17:22:12.657Z,10.90
2022-08-01T17:25:36.625Z,10.75
2022-08-01T17:29:01.674Z,10.40
2022-08-01T17:32:25.619Z,11.05
2022-08-01T17:35:49.652Z,9.82
2022-08-01T17:39:14.613Z,11.02
2022-08-01T17:42:39.631Z,11.10
2022-08-01T17:46:05.618Z,12.10
2022-08-01T17:49:53.225Z,10.77
2022-08-01T17:53:14.628Z,9.00
2022-08-01T17:56:41.910Z,9.80
2022-08-01T18:00:08.683Z,9.93
2022-08-01T18:03:32.625Z,15.45
2022-08-01T18:07:06.628Z,8.98
2022-08-01T18:10:34.616Z,10.88
2022-08-01T18:14:03.631Z,12.20
2022-08-01T18:17:28.616Z,10.00
2022-08-01T18:20:53.675Z,7.30
2022-08-01T18:24:22.581Z,7.55
2022-08-01T18:28:22.563Z,6.45
2022-08-01T18:31:32.586Z,7.03
2022-08-01T18:34:56.776Z,16.50
2022-08-01T18:38:23.993Z,26.85
2022-08-01T18:41:50.632Z,12.43
2022-08-01T18:45:14.611Z,7.63
2022-08-01T18:48:39.702Z,6.95
2022-08-01T18:52:06.649Z,10.68
2022-08-01T18:55:30.680Z,8.80
2022-08-01T18:58:56.673Z,9.07
2022-08-01T19:02:20.658Z,8.57
2022-08-01T19:05:44.624Z,7.68
2022-08-01T19:09:11.680Z,10.52
2022-08-01T19:12:35.615Z,9.00
2022-08-01T19:15:59.693Z,11.35
2022-08-01T19:19:27.554Z,9.02
2022-08-01T19:22:53.656Z,6.65
2022-08-01T19:26:20.658Z,6.97
2022-08-01T19:29:50.654Z,7.50
2022-08-01T19:33:14.619Z,7.70
2022-08-01T19:36:39.641Z,9.00
2022-08-01T19:40:05.625Z,12.23
2022-08-01T19:43:29.633Z,12.13
2022-08-01T19:46:58.630Z,13.73
2022-08-01T19:50:22.652Z,13.40
2022-08-01T19:53:56.703Z,10.88
2022-08-01T19:57:22.657Z,10.35
2022-08-01T20:00:47.646Z,10.35
2022-08-01T20:04:14.642Z,10.20
2022-08-01T20:07:38.651Z,10.80
2022-08-01T20:11:10.304Z,10.13
2022-08-01T20:14:40.705Z,9.85
2022-08-01T20:18:04.620Z,10.88
2022-08-01T20:21:29.689Z,13.50
2022-08-01T20:24:57.642Z,21.23
2022-08-01T20:28:25.697Z,20.23
2022-08-01T20:31:50.632Z,14.55
2022-08-01T20:35:16.649Z,10.00
2022-08-01T20:39:00.697Z,9.60
2022-08-01T20:42:24.716Z,9.80
2022-08-01T20:45:49.710Z,8.90
2022-08-01T20:49:13.739Z,7.75
2022-08-01T20:52:37.736Z,7.25
2022-08-01T20:56:07.696Z,7.60
2022-08-01T20:59:55.977Z,8.00
2022-08-01T21:03:26.685Z,8.27
2022-08-01T21:06:57.684Z,7.85
2022-08-01T21:10:23.687Z,8.30
2022-08-01T21:13:58.807Z,8.30
2022-08-01T21:17:27.706Z,8.43
2022-08-01T21:21:21.717Z,8.95
2022-08-01T21:25:02.690Z,7.88
2022-08-01T21:28:29.682Z,8.50
2022-08-01T21:31:55.695Z,7.80
2022-08-01T21:35:20.646Z,7.68
2022-08-01T21:38:44.681Z,6.20
2022-08-01T21:42:09.519Z,5.70
2022-08-01T21:45:37.654Z,4.60
2022-08-01T21:49:21.788Z,3.85
2022-08-01T21:52:59.653Z,4.10
2022-08-01T21:56:40.701Z,3.00
2022-08-01T22:00:31.717Z,2.78
2022-08-01T22:04:01.687Z,2.65
2022-08-01T22:07:28.664Z,2.38
2022-08-01T22:10:53.706Z,2.67
2022-08-01T22:14:22.657Z,2.70
2022-08-01T22:17:46.685Z,2.40
2022-08-01T22:21:10.816Z,2.40
2022-08-01T22:24:34.740Z,2.35
2022-08-01T22:28:07.794Z,2.10
2022-08-01T22:31:37.975Z,2.20
2022-08-01T22:35:02.726Z,2.80
2022-08-01T22:38:27.688Z,2.65
2022-08-01T22:42:02.025Z,2.45
2022-08-01T22:45:33.654Z,2.60
2022-08-01T22:48:58.801Z,2.50
2022-08-01T22:52:35.715Z,2.53
2022-08-01T22:55:59.740Z,2.85
2022-08-01T22:59:23.763Z,2.38
2022-08-01T23:02:51.687Z,2.53
2022-08-01T23:06:32.782Z,2.60
2022-08-01T23:09:56.719Z,3.08
2022-08-01T23:13:20.724Z,4.30
2022-08-01T23:16:45.721Z,3.22
2022-08-01T23:20:14.833Z,3.40
2022-08-01T23:23:38.720Z,2.58
2022-08-01T23:27:04.775Z,2.58
2022-08-01T23:30:28.734Z,2.67
2022-08-01T23:33:52.732Z,3.30
2022-08-01T23:37:17.690Z,2.47
2022-08-01T23:40:40.765Z,2.05
2022-08-01T23:44:05.699Z,2.00
2022-08-01T23:47:33.689Z,1.73
2022-08-01T23:50:58.776Z,1.70
2022-08-01T23:54:22.755Z,1.50
2022-08-01T23:57:47.793Z,1.60
